createdAt,value
2023-01-29T00:00:42.624Z,6.30
2023-01-29T00:03:09.156Z,6.32
2023-01-29T00:05:35.867Z,6.78
2023-01-29T00:08:02.394Z,6.15
2023-01-29T00:10:28.910Z,6.53
2023-01-29T00:12:55.468Z,6.43
2023-01-29T00:15:21.967Z,7.65
2023-01-29T00:17:48.528Z,6.22
2023-01-29T00:20:15.897Z,6.43
2023-01-29T00:22:42.505Z,6.63
2023-01-29T00:25:09.586Z,6.32
2023-01-29T00:27:36.076Z,6.25
2023-01-29T00:30:22.859Z,6.60
2023-01-29T00:32:49.381Z,6.35
2023-01-29T00:35:15.962Z,6.13
2023-01-29T00:37:42.488Z,6.80
2023-01-29T00:40:09.852Z,6.03
2023-01-29T00:42:55.171Z,5.60
2023-01-29T00:45:21.662Z,5.65
2023-01-29T00:47:48.173Z,6.25
2023-01-29T00:50:14.939Z,5.63
2023-01-29T00:52:41.706Z,6.47
2023-01-29T00:55:09.835Z,5.40
2023-01-29T00:57:38.064Z,6.10
2023-01-29T01:00:08.873Z,5.40
2023-01-29T01:02:53.984Z,5.55
2023-01-29T01:05:20.747Z,5.90
2023-01-29T01:07:49.390Z,6.05
2023-01-29T01:10:22.260Z,5.53
2023-01-29T01:12:59.152Z,5.83
2023-01-29T01:15:32.034Z,5.85
2023-01-29T01:18:00.335Z,5.27
2023-01-29T01:20:29.762Z,5.07
2023-01-29T01:22:57.193Z,5.22
2023-01-29T01:25:25.364Z,4.93
2023-01-29T01:27:56.525Z,4.95
2023-01-29T01:30:23.982Z,4.85
2023-01-29T01:32:50.766Z,4.72
2023-01-29T01:35:18.016Z,5.28
2023-01-29T01:37:44.597Z,5.03
2023-01-29T01:40:18.214Z,4.75
2023-01-29T01:42:51.496Z,5.00
2023-01-29T01:45:26.105Z,4.43
2023-01-29T01:47:58.988Z,4.30
2023-01-29T01:50:42.900Z,4.90
2023-01-29T01:53:13.180Z,4.90
2023-01-29T01:55:48.625Z,4.70
2023-01-29T01:58:25.327Z,4.53
2023-01-29T02:00:52.357Z,4.47
2023-01-29T02:03:41.235Z,4.82
2023-01-29T02:06:27.628Z,4.63
2023-01-29T02:09:17.095Z,4.45
2023-01-29T02:11:43.607Z,4.43
2023-01-29T02:14:11.619Z,4.03
2023-01-29T02:16:38.427Z,4.97
2023-01-29T02:19:15.158Z,4.18
2023-01-29T02:21:44.560Z,4.60
2023-01-29T02:24:29.382Z,3.90
2023-01-29T02:27:10.310Z,4.25
2023-01-29T02:29:55.360Z,4.63
2023-01-29T02:32:41.257Z,4.43
2023-01-29T02:35:28.935Z,4.10
2023-01-29T02:38:01.478Z,4.15
2023-01-29T02:40:40.378Z,3.97
2023-01-29T02:43:47.382Z,3.92
2023-01-29T02:46:34.434Z,3.90
2023-01-29T02:49:20.523Z,4.10
2023-01-29T02:51:55.701Z,4.28
2023-01-29T02:54:29.208Z,4.15
2023-01-29T02:56:59.583Z,4.28
2023-01-29T02:59:35.597Z,4.25
2023-01-29T03:02:17.798Z,3.92
2023-01-29T03:04:50.778Z,4.20
2023-01-29T03:07:44.480Z,4.43
2023-01-29T03:10:21.625Z,3.90
2023-01-29T03:13:02.031Z,4.13
2023-01-29T03:15:38.894Z,4.18
2023-01-29T03:18:11.365Z,4.22
2023-01-29T03:20:48.343Z,4.03
2023-01-29T03:23:23.797Z,4.40
2023-01-29T03:26:13.670Z,4.43
2023-01-29T03:29:00.452Z,4.57
2023-01-29T03:31:46.452Z,4.47
2023-01-29T03:34:24.001Z,4.30
2023-01-29T03:37:01.546Z,5.38
2023-01-29T03:39:29.374Z,4.63
2023-01-29T03:42:04.784Z,4.75
2023-01-29T03:45:02.237Z,4.50
2023-01-29T03:47:47.343Z,5.38
2023-01-29T03:50:42.272Z,4.95
2023-01-29T03:53:34.309Z,5.18
2023-01-29T03:56:27.378Z,4.60
2023-01-29T03:59:18.529Z,5.85
2023-01-29T04:01:51.943Z,4.95
2023-01-29T04:04:26.829Z,4.82
2023-01-29T04:06:57.711Z,5.50
2023-01-29T04:09:31.538Z,4.78
2023-01-29T04:14:34.013Z,5.60
2023-01-29T04:17:08.103Z,5.50
2023-01-29T04:19:35.374Z,6.15
2023-01-29T04:22:19.026Z,5.63
2023-01-29T04:24:46.372Z,5.45
2023-01-29T04:27:34.386Z,5.35
2023-01-29T04:30:21.055Z,5.40
2023-01-29T04:32:59.788Z,5.68
2023-01-29T04:35:29.405Z,5.57
2023-01-29T04:38:14.700Z,5.50
2023-01-29T04:40:53.376Z,5.32
2023-01-29T04:43:32.329Z,5.82
2023-01-29T04:46:19.696Z,5.43
2023-01-29T04:48:56.919Z,4.97
2023-01-29T04:51:45.008Z,4.88
2023-01-29T04:54:26.240Z,5.93
2023-01-29T04:57:25.830Z,5.57
2023-01-29T05:00:08.572Z,5.40
2023-01-29T05:02:41.105Z,5.25
2023-01-29T05:05:09.086Z,6.05
2023-01-29T05:07:38.496Z,5.65
2023-01-29T05:10:08.233Z,5.80
2023-01-29T05:12:37.371Z,5.93
2023-01-29T05:15:09.968Z,5.53
2023-01-29T05:17:36.531Z,5.32
2023-01-29T05:20:03.516Z,5.03
2023-01-29T05:22:30.590Z,4.93
2023-01-29T05:24:57.102Z,4.63
2023-01-29T05:27:50.165Z,4.95
2023-01-29T05:30:17.141Z,5.03
2023-01-29T05:32:43.870Z,4.97
2023-01-29T05:35:10.473Z,4.80
2023-01-29T05:37:37.011Z,5.30
2023-01-29T05:40:04.151Z,5.35
2023-01-29T05:42:30.913Z,5.40
2023-01-29T05:44:57.411Z,5.30
2023-01-29T05:47:23.925Z,5.20
2023-01-29T05:49:50.386Z,5.15
2023-01-29T05:52:16.885Z,5.57
2023-01-29T05:54:43.820Z,5.63
2023-01-29T05:57:10.367Z,5.75
2023-01-29T05:59:36.947Z,5.88
2023-01-29T06:02:03.495Z,5.53
2023-01-29T06:04:30.048Z,5.72
2023-01-29T06:06:56.582Z,6.47
2023-01-29T06:09:23.061Z,6.05
2023-01-29T06:11:49.556Z,5.95
2023-01-29T06:14:16.109Z,5.57
2023-01-29T06:16:42.612Z,5.72
2023-01-29T06:19:09.089Z,5.85
2023-01-29T06:21:35.572Z,6.47
2023-01-29T06:24:02.191Z,5.75
2023-01-29T06:26:28.718Z,6.53
2023-01-29T06:28:55.541Z,6.10
2023-01-29T06:31:37.432Z,6.40
2023-01-29T06:34:05.109Z,6.07
2023-01-29T06:36:31.617Z,6.28
2023-01-29T06:38:58.167Z,6.60
2023-01-29T06:41:25.593Z,7.10
2023-01-29T06:43:52.291Z,6.35
2023-01-29T06:46:18.793Z,6.50
2023-01-29T06:48:45.282Z,6.47
2023-01-29T06:51:11.895Z,6.72
2023-01-29T06:53:39.456Z,6.78
2023-01-29T06:56:06.976Z,7.47
2023-01-29T06:58:33.955Z,6.28
2023-01-29T07:01:13.883Z,6.97
2023-01-29T07:03:51.862Z,6.25
2023-01-29T07:06:18.841Z,6.43
2023-01-29T07:08:45.769Z,6.75
2023-01-29T07:11:12.963Z,6.53
2023-01-29T07:13:39.462Z,6.70
2023-01-29T07:16:07.029Z,6.45
2023-01-29T07:18:33.638Z,6.07
2023-01-29T07:21:04.919Z,6.07
2023-01-29T07:23:31.429Z,6.57
2023-01-29T07:26:01.999Z,6.15
2023-01-29T07:28:28.771Z,6.72
2023-01-29T07:30:59.228Z,6.97
2023-01-29T07:33:26.380Z,6.20
2023-01-29T07:35:53.479Z,6.10
2023-01-29T07:38:20.037Z,6.82
2023-01-29T07:40:46.761Z,6.45
2023-01-29T07:43:13.433Z,6.47
2023-01-29T07:45:40.531Z,6.38
2023-01-29T07:48:10.877Z,5.72
2023-01-29T07:50:37.883Z,6.72
2023-01-29T07:53:04.576Z,5.85
2023-01-29T07:55:31.511Z,6.60
2023-01-29T07:58:03.076Z,6.88
2023-01-29T08:00:31.476Z,6.32
2023-01-29T08:03:06.502Z,5.90
2023-01-29T08:05:33.784Z,6.60
2023-01-29T08:08:06.408Z,6.70
2023-01-29T08:10:37.920Z,5.80
2023-01-29T08:13:06.158Z,6.43
2023-01-29T08:15:36.621Z,6.30
2023-01-29T08:18:04.815Z,6.32
2023-01-29T08:20:31.382Z,6.50
2023-01-29T08:23:02.873Z,6.20
2023-01-29T08:25:30.272Z,6.78
2023-01-29T08:27:58.233Z,6.00
2023-01-29T08:30:26.711Z,5.80
2023-01-29T08:32:53.326Z,6.45
2023-01-29T08:35:20.284Z,6.97
2023-01-29T08:37:59.429Z,6.40
2023-01-29T08:40:27.318Z,6.28
2023-01-29T08:43:01.506Z,6.05
2023-01-29T08:45:28.865Z,5.93
2023-01-29T08:47:55.603Z,6.40
2023-01-29T08:50:22.210Z,6.80
2023-01-29T08:52:48.701Z,6.03
2023-01-29T08:55:15.632Z,5.65
2023-01-29T08:57:42.434Z,6.68
2023-01-29T09:00:10.303Z,6.30
2023-01-29T09:02:37.270Z,6.03
2023-01-29T09:05:04.021Z,5.80
2023-01-29T09:07:30.560Z,6.35
2023-01-29T09:09:57.210Z,6.28
2023-01-29T09:12:23.826Z,6.32
2023-01-29T09:14:50.353Z,6.70
2023-01-29T09:17:17.202Z,5.97
2023-01-29T09:19:43.675Z,6.13
2023-01-29T09:22:11.910Z,6.25
2023-01-29T09:24:38.670Z,6.18
2023-01-29T09:27:06.180Z,5.90
2023-01-29T09:29:35.657Z,6.65
2023-01-29T09:32:03.586Z,6.28
2023-01-29T09:34:30.204Z,6.70
2023-01-29T09:36:56.738Z,6.18
2023-01-29T09:39:23.243Z,5.63
2023-01-29T09:42:24.706Z,6.28
2023-01-29T09:45:10.711Z,6.35
2023-01-29T09:47:37.437Z,6.80
2023-01-29T09:50:26.116Z,6.53
2023-01-29T09:53:11.504Z,7.07
2023-01-29T09:55:45.675Z,6.25
2023-01-29T09:58:38.588Z,6.53
2023-01-29T10:01:23.149Z,5.57
2023-01-29T10:04:19.537Z,6.68
2023-01-29T10:07:10.268Z,6.32
2023-01-29T10:09:53.829Z,6.53
2023-01-29T10:12:37.815Z,6.80
2023-01-29T10:15:33.313Z,6.95
2023-01-29T10:18:31.636Z,6.78
2023-01-29T10:21:07.051Z,7.25
2023-01-29T10:23:37.802Z,7.22
2023-01-29T10:26:04.346Z,7.07
2023-01-29T10:28:46.601Z,6.43
2023-01-29T10:31:27.837Z,6.55
2023-01-29T10:34:02.961Z,6.97
2023-01-29T10:36:38.461Z,7.95
2023-01-29T10:39:05.078Z,6.82
2023-01-29T10:41:41.051Z,8.18
2023-01-29T10:44:24.550Z,6.70
2023-01-29T10:47:15.801Z,8.05
2023-01-29T10:50:39.476Z,7.90
2023-01-29T10:53:23.929Z,6.90
2023-01-29T10:56:25.729Z,7.35
2023-01-29T10:59:08.214Z,7.50
2023-01-29T11:01:34.898Z,7.82
2023-01-29T11:04:04.266Z,8.00
2023-01-29T11:06:35.448Z,7.15
2023-01-29T11:09:14.148Z,7.63
2023-01-29T11:11:48.895Z,7.05
2023-01-29T11:14:22.760Z,7.00
2023-01-29T11:16:49.459Z,7.25
2023-01-29T11:19:16.831Z,7.10
2023-01-29T11:22:01.223Z,7.25
2023-01-29T11:24:28.630Z,7.60
2023-01-29T11:26:58.721Z,7.13
2023-01-29T11:29:57.540Z,6.70
2023-01-29T11:32:23.975Z,7.38
2023-01-29T11:34:57.365Z,7.85
2023-01-29T11:37:31.262Z,7.57
2023-01-29T11:39:57.853Z,6.80
2023-01-29T11:42:24.579Z,7.38
2023-01-29T11:44:51.098Z,7.10
2023-01-29T11:47:20.791Z,8.07
2023-01-29T11:49:59.087Z,7.80
2023-01-29T11:52:34.920Z,7.93
2023-01-29T11:55:05.678Z,7.47
2023-01-29T11:57:34.218Z,8.20
2023-01-29T12:00:19.126Z,7.72
2023-01-29T12:02:53.024Z,8.48
2023-01-29T12:05:22.910Z,7.72
2023-01-29T12:07:56.562Z,7.47
2023-01-29T12:10:36.178Z,7.72
2023-01-29T12:13:12.009Z,7.45
2023-01-29T12:15:40.181Z,7.20
2023-01-29T12:18:12.529Z,8.07
2023-01-29T12:20:55.153Z,7.85
2023-01-29T12:23:36.691Z,8.48
2023-01-29T12:26:03.514Z,8.63
2023-01-29T12:28:41.378Z,8.60
2023-01-29T12:31:38.478Z,7.60
2023-01-29T12:34:34.784Z,8.13
2023-01-29T12:37:12.270Z,7.35
2023-01-29T12:39:38.846Z,8.02
2023-01-29T12:42:16.527Z,8.52
2023-01-29T12:45:05.257Z,7.28
2023-01-29T12:48:05.301Z,7.70
2023-01-29T12:50:38.507Z,7.03
2023-01-29T12:53:29.051Z,8.15
2023-01-29T12:56:02.356Z,8.15
2023-01-29T12:58:45.183Z,8.50
2023-01-29T13:01:22.099Z,8.38
2023-01-29T13:03:57.475Z,8.30
2023-01-29T13:06:30.544Z,8.80
2023-01-29T13:09:01.709Z,8.02
2023-01-29T13:12:14.852Z,8.27
2023-01-29T13:14:51.999Z,9.30
2023-01-29T13:17:26.640Z,9.23
2023-01-29T13:19:58.105Z,8.98
2023-01-29T13:22:27.630Z,8.82
2023-01-29T13:25:04.119Z,8.98
2023-01-29T13:27:34.281Z,9.55
2023-01-29T13:30:01.573Z,9.13
2023-01-29T13:32:30.458Z,8.82
2023-01-29T13:35:01.007Z,9.00
2023-01-29T13:37:34.318Z,10.10
2023-01-29T13:40:02.833Z,9.00
2023-01-29T13:42:49.641Z,9.98
2023-01-29T13:45:25.854Z,9.73
2023-01-29T13:47:53.299Z,9.32
2023-01-29T13:50:37.374Z,8.82
2023-01-29T13:55:35.001Z,9.27
2023-01-29T13:58:37.839Z,9.27
2023-01-29T14:01:04.808Z,10.10
2023-01-29T14:03:40.035Z,9.15
2023-01-29T14:06:39.262Z,9.00
2023-01-29T14:09:32.849Z,9.20
2023-01-29T14:11:59.905Z,8.88
2023-01-29T14:15:04.361Z,9.38
2023-01-29T14:17:31.033Z,9.13
2023-01-29T14:20:19.114Z,9.02
2023-01-29T14:22:56.579Z,8.85
2023-01-29T14:25:29.813Z,8.93
2023-01-29T14:27:58.766Z,9.32
2023-01-29T14:30:27.743Z,8.90
2023-01-29T14:32:54.955Z,9.55
2023-01-29T14:35:25.542Z,8.45
2023-01-29T14:37:57.717Z,8.65
2023-01-29T14:40:26.698Z,8.88
2023-01-29T14:43:04.571Z,6.97
2023-01-29T14:45:35.282Z,8.13
2023-01-29T14:48:10.818Z,8.02
2023-01-29T14:50:37.786Z,8.02
2023-01-29T14:53:27.543Z,7.78
2023-01-29T14:56:12.547Z,8.70
2023-01-29T14:58:44.968Z,8.05
2023-01-29T15:01:38.768Z,7.70
2023-01-29T15:04:27.318Z,6.80
2023-01-29T15:07:04.704Z,8.18
2023-01-29T15:09:43.240Z,8.38
2023-01-29T15:12:31.390Z,7.78
2023-01-29T15:15:33.298Z,8.23
2023-01-29T15:18:04.826Z,8.20
2023-01-29T15:20:40.262Z,8.77
2023-01-29T15:23:26.974Z,7.53
2023-01-29T15:25:57.710Z,8.55
2023-01-29T15:28:24.367Z,8.73
2023-01-29T15:30:55.230Z,8.10
2023-01-29T15:33:21.967Z,8.32
2023-01-29T15:35:51.669Z,8.20
2023-01-29T15:38:22.672Z,8.25
2023-01-29T15:41:03.171Z,8.13
2023-01-29T15:43:35.305Z,8.15
2023-01-29T15:46:04.831Z,8.30
2023-01-29T15:48:43.499Z,8.00
2023-01-29T15:51:22.701Z,8.32
2023-01-29T15:53:53.406Z,7.85
2023-01-29T15:56:28.153Z,7.97
2023-01-29T15:58:56.720Z,7.55
2023-01-29T16:01:26.538Z,7.63
2023-01-29T16:03:54.125Z,7.63
2023-01-29T16:06:22.162Z,7.70
2023-01-29T16:08:53.591Z,7.90
2023-01-29T16:11:20.903Z,7.65
2023-01-29T16:13:49.894Z,6.75
2023-01-29T16:16:16.449Z,7.00
2023-01-29T16:18:58.990Z,8.48
2023-01-29T16:21:28.950Z,7.05
2023-01-29T16:23:58.804Z,7.88
2023-01-29T16:26:29.124Z,7.70
2023-01-29T16:28:56.000Z,8.30
2023-01-29T16:31:28.145Z,7.82
2023-01-29T16:33:57.711Z,7.85
2023-01-29T16:36:26.883Z,8.23
2023-01-29T16:39:02.017Z,7.70
2023-01-29T16:41:31.676Z,8.25
2023-01-29T16:44:27.841Z,8.63
2023-01-29T16:46:54.563Z,8.55
2023-01-29T16:49:26.823Z,8.18
2023-01-29T16:51:54.605Z,7.90
2023-01-29T16:54:24.755Z,8.35
2023-01-29T16:56:54.754Z,8.68
2023-01-29T16:59:36.734Z,8.25
2023-01-29T17:02:04.237Z,8.05
2023-01-29T17:04:30.779Z,7.75
2023-01-29T17:07:00.472Z,8.35
2023-01-29T17:09:33.718Z,8.48
2023-01-29T17:12:05.388Z,8.57
2023-01-29T17:14:34.316Z,8.13
2023-01-29T17:17:07.832Z,8.63
2023-01-29T17:19:34.393Z,8.60
2023-01-29T17:22:04.605Z,8.13
2023-01-29T17:24:31.624Z,8.40
2023-01-29T17:26:58.200Z,9.40
2023-01-29T17:29:29.170Z,8.63
2023-01-29T17:31:56.128Z,9.82
2023-01-29T17:34:24.039Z,8.93
2023-01-29T17:36:50.529Z,10.55
2023-01-29T17:39:19.085Z,9.73
2023-01-29T17:41:53.941Z,9.50
2023-01-29T17:44:21.000Z,9.75
2023-01-29T17:46:48.148Z,10.40
2023-01-29T17:49:29.331Z,9.98
2023-01-29T17:51:57.044Z,10.82
2023-01-29T17:54:24.257Z,10.57
2023-01-29T17:56:51.760Z,9.75
2023-01-29T17:59:21.093Z,10.40
2023-01-29T18:01:48.358Z,10.00
2023-01-29T18:04:15.608Z,10.35
2023-01-29T18:06:43.726Z,10.38
2023-01-29T18:09:15.403Z,9.93
2023-01-29T18:11:42.741Z,10.00
2023-01-29T18:14:14.009Z,10.30
2023-01-29T18:16:42.476Z,9.63
2023-01-29T18:19:20.845Z,10.63
2023-01-29T18:21:48.178Z,9.75
2023-01-29T18:24:15.158Z,9.98
2023-01-29T18:26:41.992Z,10.48
2023-01-29T18:29:08.700Z,10.07
2023-01-29T18:31:35.294Z,9.63
2023-01-29T18:34:01.831Z,10.73
2023-01-29T18:36:28.868Z,10.55
2023-01-29T18:38:57.738Z,9.95
2023-01-29T18:41:24.308Z,10.38
2023-01-29T18:43:52.714Z,10.25
2023-01-29T18:46:19.837Z,10.30
2023-01-29T18:48:46.369Z,10.30
2023-01-29T18:51:12.931Z,10.55
2023-01-29T18:53:39.460Z,9.32
2023-01-29T18:56:06.797Z,9.57
2023-01-29T18:58:35.940Z,10.90
2023-01-29T19:01:09.153Z,10.18
2023-01-29T19:03:36.742Z,9.45
2023-01-29T19:06:05.561Z,10.05
2023-01-29T19:08:33.157Z,10.00
2023-01-29T19:11:02.433Z,9.75
2023-01-29T19:13:30.103Z,9.30
2023-01-29T19:15:56.760Z,9.75
2023-01-29T19:18:25.905Z,9.88
2023-01-29T19:20:53.346Z,9.98
2023-01-29T19:23:20.440Z,9.20
2023-01-29T19:25:47.005Z,9.10
2023-01-29T19:28:13.555Z,9.30
2023-01-29T19:30:40.131Z,9.38
2023-01-29T19:33:06.713Z,8.07
2023-01-29T19:35:33.520Z,8.52
2023-01-29T19:38:01.141Z,8.20
2023-01-29T19:40:27.798Z,8.90
2023-01-29T19:42:55.669Z,8.13
2023-01-29T19:45:49.234Z,8.10
2023-01-29T19:48:14.469Z,8.80
2023-01-29T19:50:41.163Z,8.20
2023-01-29T19:53:07.713Z,8.43
2023-01-29T19:55:34.234Z,8.35
2023-01-29T19:58:00.795Z,8.55
2023-01-29T20:00:27.353Z,7.40
2023-01-29T20:02:53.900Z,8.57
2023-01-29T20:05:20.675Z,7.95
2023-01-29T20:07:47.351Z,7.90
2023-01-29T20:10:17.247Z,8.52
2023-01-29T20:12:45.578Z,8.18
2023-01-29T20:15:13.308Z,8.30
2023-01-29T20:17:39.956Z,8.13
2023-01-29T20:20:06.918Z,7.97
2023-01-29T20:22:33.591Z,8.75
2023-01-29T20:25:00.128Z,7.85
2023-01-29T20:27:26.670Z,7.78
2023-01-29T20:29:53.201Z,8.05
2023-01-29T20:32:19.842Z,8.82
2023-01-29T20:34:51.831Z,8.55
2023-01-29T20:37:19.333Z,8.57
2023-01-29T20:39:45.935Z,8.40
2023-01-29T20:42:12.728Z,8.40
2023-01-29T20:44:39.248Z,8.13
2023-01-29T20:47:05.769Z,8.48
2023-01-29T20:49:32.312Z,8.40
2023-01-29T20:51:58.792Z,8.45
2023-01-29T20:54:25.365Z,8.90
2023-01-29T20:56:52.078Z,8.32
2023-01-29T20:59:18.821Z,8.38
2023-01-29T21:01:45.826Z,8.77
2023-01-29T21:04:12.336Z,8.82
2023-01-29T21:06:38.901Z,7.68
2023-01-29T21:09:05.472Z,8.23
2023-01-29T21:11:33.704Z,8.65
2023-01-29T21:14:01.786Z,9.23
2023-01-29T21:16:28.424Z,8.43
2023-01-29T21:18:58.618Z,7.95
2023-01-29T21:21:26.563Z,8.00
2023-01-29T21:23:53.156Z,8.70
2023-01-29T21:26:19.865Z,8.95
2023-01-29T21:28:46.393Z,8.43
2023-01-29T21:31:15.007Z,9.18
2023-01-29T21:33:41.854Z,7.97
2023-01-29T21:36:10.015Z,8.98
2023-01-29T21:38:36.669Z,9.38
2023-01-29T21:41:05.960Z,9.73
2023-01-29T21:43:32.918Z,9.57
2023-01-29T21:46:02.394Z,9.00
2023-01-29T21:48:28.994Z,8.88
2023-01-29T21:50:55.578Z,9.77
2023-01-29T21:53:22.452Z,9.73
2023-01-29T21:55:48.997Z,9.70
2023-01-29T21:58:15.487Z,9.82
2023-01-29T22:00:42.073Z,9.80
2023-01-29T22:03:08.640Z,9.68
2023-01-29T22:05:35.269Z,9.63
2023-01-29T22:08:02.475Z,9.15
2023-01-29T22:10:30.565Z,9.45
2023-01-29T22:12:59.766Z,9.88
2023-01-29T22:15:26.398Z,10.45
2023-01-29T22:17:52.972Z,9.43
2023-01-29T22:20:20.169Z,10.20
2023-01-29T22:22:46.900Z,9.77
2023-01-29T22:25:13.488Z,9.93
2023-01-29T22:27:40.037Z,9.88
2023-01-29T22:30:07.368Z,9.73
2023-01-29T22:32:33.999Z,9.88
2023-01-29T22:35:00.608Z,9.50
2023-01-29T22:37:27.466Z,8.80
2023-01-29T22:39:54.024Z,8.38
2023-01-29T22:42:20.896Z,8.45
2023-01-29T22:44:48.597Z,9.27
2023-01-29T22:47:15.476Z,9.27
2023-01-29T22:49:42.103Z,8.43
2023-01-29T22:52:11.558Z,8.93
2023-01-29T22:54:43.012Z,8.40
2023-01-29T22:57:11.857Z,8.30
2023-01-29T22:59:38.672Z,8.77
2023-01-29T23:02:06.160Z,9.02
2023-01-29T23:04:32.726Z,8.10
2023-01-29T23:06:59.512Z,8.27
2023-01-29T23:09:26.040Z,8.48
2023-01-29T23:11:52.551Z,8.95
2023-01-29T23:14:19.310Z,8.20
2023-01-29T23:16:45.841Z,8.18
2023-01-29T23:19:12.428Z,7.82
2023-01-29T23:21:39.781Z,7.85
2023-01-29T23:24:07.595Z,8.50
2023-01-29T23:26:52.773Z,8.23
2023-01-29T23:29:19.407Z,7.45
2023-01-29T23:31:46.185Z,7.70
2023-01-29T23:34:13.707Z,8.00
2023-01-29T23:36:40.268Z,7.25
2023-01-29T23:39:06.793Z,7.35
2023-01-29T23:41:33.432Z,8.02
2023-01-29T23:43:59.933Z,7.55
2023-01-29T23:46:26.508Z,7.57
2023-01-29T23:48:53.080Z,6.95
2023-01-29T23:51:19.598Z,7.65
2023-01-29T23:53:46.121Z,6.47
2023-01-29T23:56:12.856Z,6.75
2023-01-29T23:58:39.501Z,7.00
